createdAt,value
2022-12-01T00:00:07.814Z,7.03
2022-12-01T00:01:11.572Z,5.18
2022-12-01T00:02:13.813Z,4.20
2022-12-01T00:03:17.169Z,6.22
2022-12-01T00:04:20.396Z,8.27
2022-12-01T00:05:22.672Z,5.85
2022-12-01T00:06:25.799Z,4.53
2022-12-01T00:07:28.040Z,4.70
2022-12-01T00:08:32.367Z,3.93
2022-12-01T00:09:53.235Z,3.72
2022-12-01T00:10:55.967Z,6.43
2022-12-01T00:11:58.092Z,4.03
2022-12-01T00:13:03.392Z,6.97
2022-12-01T00:14:07.526Z,4.85
2022-12-01T00:15:11.622Z,4.90
2022-12-01T00:16:16.101Z,3.28
2022-12-01T00:17:19.279Z,3.78
2022-12-01T00:18:21.433Z,4.72
2022-12-01T00:19:26.414Z,4.47
2022-12-01T00:20:29.334Z,3.80
2022-12-01T00:21:32.506Z,6.82
2022-12-01T00:22:34.667Z,4.47
2022-12-01T00:23:37.802Z,3.28
2022-12-01T00:24:39.911Z,4.50
2022-12-01T00:25:43.092Z,3.55
2022-12-01T00:26:45.222Z,4.55
2022-12-01T00:27:49.817Z,3.70
2022-12-01T00:28:52.732Z,3.58
2022-12-01T00:29:57.388Z,4.57
2022-12-01T00:31:00.280Z,4.20
2022-12-01T00:32:03.730Z,4.10
2022-12-01T00:33:05.909Z,3.10
2022-12-01T00:34:14.456Z,5.22
2022-12-01T00:35:17.645Z,4.32
2022-12-01T00:36:21.144Z,3.38
2022-12-01T00:37:23.255Z,3.17
2022-12-01T00:38:26.664Z,3.85
2022-12-01T00:39:30.075Z,2.95
2022-12-01T00:40:32.232Z,5.23
2022-12-01T00:41:35.627Z,5.43
2022-12-01T00:42:38.030Z,3.67
2022-12-01T00:43:41.254Z,4.30
2022-12-01T00:44:43.311Z,2.92
2022-12-01T00:45:48.060Z,3.95
2022-12-01T00:46:50.268Z,4.82
2022-12-01T00:47:53.890Z,2.47
2022-12-01T00:48:56.351Z,5.63
2022-12-01T00:49:59.894Z,2.63
2022-12-01T00:51:02.096Z,2.57
2022-12-01T00:52:05.430Z,3.80
2022-12-01T00:53:07.707Z,4.05
2022-12-01T00:54:10.799Z,3.03
2022-12-01T00:55:12.944Z,2.53
2022-12-01T00:56:16.174Z,3.08
2022-12-01T00:57:18.256Z,4.93
2022-12-01T00:58:21.696Z,2.70
2022-12-01T00:59:24.012Z,3.50
2022-12-01T01:00:27.563Z,1.95
2022-12-01T01:01:31.336Z,4.40
2022-12-01T01:02:34.970Z,4.30
2022-12-01T01:03:37.212Z,4.15
2022-12-01T01:04:40.572Z,3.05
2022-12-01T01:05:43.957Z,2.45
2022-12-01T01:06:47.607Z,5.28
2022-12-01T01:07:49.756Z,2.55
2022-12-01T01:08:53.422Z,2.40
2022-12-01T01:09:56.799Z,3.38
2022-12-01T01:11:00.925Z,3.75
2022-12-01T01:12:04.297Z,4.83
2022-12-01T01:13:06.901Z,4.35
2022-12-01T01:14:10.532Z,2.60
2022-12-01T01:15:12.808Z,4.45
2022-12-01T01:16:17.987Z,2.42
2022-12-01T01:17:22.006Z,5.13
2022-12-01T01:18:25.926Z,3.22
2022-12-01T01:19:29.034Z,3.80
2022-12-01T01:20:31.429Z,2.63
2022-12-01T01:21:35.066Z,3.45
2022-12-01T01:22:37.259Z,4.20
2022-12-01T01:23:40.671Z,2.83
2022-12-01T01:24:42.920Z,5.03
2022-12-01T01:25:46.050Z,2.95
2022-12-01T01:26:48.157Z,2.92
2022-12-01T01:27:51.725Z,2.88
2022-12-01T01:28:55.987Z,3.90
2022-12-01T01:29:59.470Z,3.88
2022-12-01T01:31:06.505Z,3.60
2022-12-01T01:32:09.794Z,2.40
2022-12-01T01:33:13.315Z,4.10
2022-12-01T01:34:16.737Z,2.75
2022-12-01T01:35:18.838Z,3.55
2022-12-01T01:36:22.048Z,2.20
2022-12-01T01:37:24.173Z,4.43
2022-12-01T01:38:27.542Z,3.28
2022-12-01T01:39:30.193Z,2.00
2022-12-01T01:40:33.591Z,3.08
2022-12-01T01:41:35.784Z,2.30
2022-12-01T01:42:38.988Z,3.80
2022-12-01T01:43:46.220Z,3.37
2022-12-01T01:44:53.622Z,2.47
2022-12-01T01:45:55.784Z,4.40
2022-12-01T01:46:59.211Z,3.40
2022-12-01T01:48:01.488Z,5.97
2022-12-01T01:49:09.087Z,2.05
2022-12-01T01:50:13.358Z,3.58
2022-12-01T01:51:18.658Z,3.83
2022-12-01T01:52:23.607Z,5.00
2022-12-01T01:53:26.074Z,2.53
2022-12-01T01:54:34.987Z,3.27
2022-12-01T01:55:37.183Z,3.83
2022-12-01T01:56:40.366Z,2.72
2022-12-01T01:57:43.674Z,2.40
2022-12-01T01:58:47.319Z,4.18
2022-12-01T01:59:53.747Z,3.05
2022-12-01T02:00:57.270Z,2.33
2022-12-01T02:02:06.685Z,4.28
2022-12-01T02:03:13.951Z,4.03
2022-12-01T02:04:19.080Z,3.40
2022-12-01T02:05:25.227Z,3.43
2022-12-01T02:06:27.324Z,3.30
2022-12-01T02:07:30.530Z,2.50
2022-12-01T02:08:36.111Z,2.20
2022-12-01T02:09:39.258Z,2.58
2022-12-01T02:10:59.950Z,2.50
2022-12-01T02:12:13.894Z,5.25
2022-12-01T02:13:25.484Z,2.38
2022-12-01T02:14:42.707Z,3.42
2022-12-01T02:15:53.295Z,2.42
2022-12-01T02:17:01.955Z,3.40
2022-12-01T02:18:20.829Z,3.30
2022-12-01T02:19:45.263Z,2.50
2022-12-01T02:21:09.157Z,1.70
2022-12-01T02:22:24.995Z,3.78
2022-12-01T02:23:50.254Z,1.90
2022-12-01T02:25:19.624Z,2.83
2022-12-01T02:26:39.612Z,4.10
2022-12-01T02:28:10.026Z,3.05
2022-12-01T02:30:00.513Z,2.60
2022-12-01T02:31:12.679Z,2.33
2022-12-01T02:32:21.936Z,2.13
2022-12-01T02:33:30.633Z,3.45
2022-12-01T02:34:43.576Z,2.28
2022-12-01T02:35:51.701Z,2.17
2022-12-01T02:36:58.688Z,2.05
2022-12-01T02:38:11.344Z,2.08
2022-12-01T02:39:19.213Z,2.08
2022-12-01T02:40:27.844Z,2.00
2022-12-01T02:41:35.572Z,2.15
2022-12-01T02:42:49.905Z,2.27
2022-12-01T02:43:58.540Z,1.83
2022-12-01T02:45:03.845Z,3.40
2022-12-01T02:46:13.912Z,2.88
2022-12-01T02:47:19.073Z,1.77
2022-12-01T02:48:27.167Z,2.42
2022-12-01T02:49:34.888Z,3.25
2022-12-01T02:50:40.780Z,2.22
2022-12-01T02:51:46.206Z,4.05
2022-12-01T02:52:48.670Z,4.32
2022-12-01T02:53:52.595Z,3.43
2022-12-01T02:54:56.528Z,2.67
2022-12-01T02:56:01.041Z,4.18
2022-12-01T02:57:03.299Z,2.78
2022-12-01T02:58:15.410Z,3.00
2022-12-01T02:59:18.532Z,3.33
2022-12-01T03:00:20.796Z,4.97
2022-12-01T03:01:52.636Z,3.03
2022-12-01T03:03:14.120Z,3.28
2022-12-01T03:04:37.001Z,2.65
2022-12-01T03:05:45.166Z,3.30
2022-12-01T03:06:58.785Z,2.83
2022-12-01T03:08:13.752Z,1.80
2022-12-01T03:09:27.784Z,2.58
2022-12-01T03:10:38.352Z,1.60
2022-12-01T03:11:48.038Z,4.30
2022-12-01T03:13:02.148Z,4.63
2022-12-01T03:14:18.307Z,3.95
2022-12-01T03:15:31.156Z,2.03
2022-12-01T03:16:44.247Z,2.53
2022-12-01T03:17:54.174Z,2.73
2022-12-01T03:19:00.867Z,3.35
2022-12-01T03:20:11.825Z,3.00
2022-12-01T03:21:22.838Z,3.67
2022-12-01T03:22:29.035Z,5.20
2022-12-01T03:23:36.809Z,3.15
2022-12-01T03:24:41.293Z,2.72
2022-12-01T03:25:49.741Z,1.77
2022-12-01T03:26:57.063Z,5.35
2022-12-01T03:29:30.772Z,2.73
2022-12-01T03:30:35.727Z,2.58
2022-12-01T03:31:44.555Z,3.03
2022-12-01T03:32:53.164Z,4.38
2022-12-01T03:34:02.076Z,2.75
2022-12-01T03:35:09.118Z,1.83
2022-12-01T03:36:17.494Z,4.40
2022-12-01T03:37:24.897Z,2.88
2022-12-01T03:38:31.937Z,2.83
2022-12-01T03:39:36.188Z,3.15
2022-12-01T03:40:41.457Z,2.87
2022-12-01T03:41:56.891Z,3.05
2022-12-01T03:43:04.269Z,4.22
2022-12-01T03:44:12.567Z,1.90
2022-12-01T03:45:19.758Z,7.30
2022-12-01T03:46:30.814Z,1.80
2022-12-01T03:47:35.869Z,3.47
2022-12-01T03:48:41.915Z,3.47
2022-12-01T03:49:45.296Z,1.85
2022-12-01T03:50:58.504Z,2.75
2022-12-01T03:52:11.759Z,3.00
2022-12-01T03:53:21.887Z,3.58
2022-12-01T03:54:38.340Z,3.10
2022-12-01T03:55:44.090Z,3.13
2022-12-01T03:56:53.516Z,2.47
2022-12-01T03:58:03.172Z,3.13
2022-12-01T03:59:09.288Z,2.38
2022-12-01T04:00:14.902Z,2.17
2022-12-01T04:01:17.207Z,3.33
2022-12-01T04:02:20.636Z,2.53
2022-12-01T04:03:25.503Z,3.83
2022-12-01T04:04:30.214Z,2.47
2022-12-01T04:05:34.782Z,2.70
2022-12-01T04:06:38.008Z,2.70
2022-12-01T04:07:40.702Z,2.60
2022-12-01T04:08:43.947Z,2.53
2022-12-01T04:09:46.256Z,2.75
2022-12-01T04:10:49.603Z,3.70
2022-12-01T04:12:10.635Z,4.00
2022-12-01T04:13:22.337Z,2.95
2022-12-01T04:14:26.372Z,2.27
2022-12-01T04:15:28.865Z,2.75
2022-12-01T04:16:32.309Z,3.70
2022-12-01T04:17:35.072Z,5.40
2022-12-01T04:18:38.262Z,2.35
2022-12-01T04:19:41.960Z,4.20
2022-12-01T04:20:47.013Z,2.15
2022-12-01T04:21:49.137Z,2.42
2022-12-01T04:22:52.317Z,4.13
2022-12-01T04:24:00.389Z,3.03
2022-12-01T04:25:04.031Z,2.20
2022-12-01T04:26:08.111Z,2.33
2022-12-01T04:27:14.627Z,1.42
2022-12-01T04:28:16.857Z,2.80
2022-12-01T04:29:20.321Z,3.17
2022-12-01T04:30:22.507Z,4.00
2022-12-01T04:31:25.813Z,3.85
2022-12-01T04:32:28.094Z,2.25
2022-12-01T04:33:31.329Z,2.05
2022-12-01T04:34:33.604Z,3.53
2022-12-01T04:35:38.675Z,3.27
2022-12-01T04:36:40.802Z,4.20
2022-12-01T04:37:43.982Z,3.03
2022-12-01T04:38:46.096Z,3.85
2022-12-01T04:39:50.713Z,2.90
2022-12-01T04:40:53.210Z,2.55
2022-12-01T04:41:56.793Z,2.75
2022-12-01T04:42:58.859Z,3.33
2022-12-01T04:44:02.654Z,4.00
2022-12-01T04:45:05.205Z,4.97
2022-12-01T04:46:09.446Z,4.17
2022-12-01T04:47:12.780Z,3.45
2022-12-01T04:48:14.939Z,4.53
2022-12-01T04:49:18.104Z,5.03
2022-12-01T04:50:20.255Z,2.10
2022-12-01T04:51:25.076Z,3.13
2022-12-01T04:52:32.032Z,6.00
2022-12-01T04:53:38.485Z,2.88
2022-12-01T04:54:41.168Z,3.67
2022-12-01T04:55:44.433Z,2.70
2022-12-01T04:56:46.622Z,2.47
2022-12-01T04:57:50.026Z,3.65
2022-12-01T04:58:52.253Z,3.22
2022-12-01T04:59:55.526Z,3.67
2022-12-01T05:01:02.248Z,2.05
2022-12-01T05:02:05.828Z,3.55
2022-12-01T05:03:13.523Z,3.53
2022-12-01T05:04:18.235Z,4.85
2022-12-01T05:05:20.506Z,5.13
2022-12-01T05:06:26.715Z,2.47
2022-12-01T05:07:28.947Z,4.03
2022-12-01T05:08:32.636Z,3.40
2022-12-01T05:09:35.918Z,3.63
2022-12-01T05:10:38.658Z,6.28
2022-12-01T05:11:41.756Z,5.78
2022-12-01T05:12:43.955Z,3.60
2022-12-01T05:13:49.888Z,4.85
2022-12-01T05:14:52.164Z,5.55
2022-12-01T05:15:55.437Z,4.30
2022-12-01T05:16:58.348Z,3.42
2022-12-01T05:18:01.769Z,6.07
2022-12-01T05:19:35.796Z,7.93
2022-12-01T05:20:56.208Z,4.68
2022-12-01T05:22:00.759Z,6.00
2022-12-01T05:23:05.761Z,6.30
2022-12-01T05:24:10.885Z,4.93
2022-12-01T05:25:13.020Z,5.90
2022-12-01T05:26:16.341Z,4.93
2022-12-01T05:27:18.609Z,6.15
2022-12-01T05:28:22.977Z,5.43
2022-12-01T05:29:26.123Z,5.30
2022-12-01T05:30:28.956Z,6.45
2022-12-01T05:31:32.877Z,7.32
2022-12-01T05:32:35.008Z,5.72
2022-12-01T05:33:38.198Z,3.75
2022-12-01T05:34:40.394Z,4.00
2022-12-01T05:35:44.071Z,5.55
2022-12-01T05:36:46.427Z,7.60
2022-12-01T05:37:50.990Z,5.65
2022-12-01T05:38:54.682Z,3.53
2022-12-01T05:39:56.732Z,4.13
2022-12-01T05:40:59.856Z,4.82
2022-12-01T05:42:01.967Z,4.43
2022-12-01T05:43:05.914Z,3.45
2022-12-01T05:44:08.247Z,3.55
2022-12-01T05:45:12.568Z,5.03
2022-12-01T05:46:15.113Z,4.22
2022-12-01T05:47:18.339Z,5.10
2022-12-01T05:48:20.689Z,5.32
2022-12-01T05:49:24.135Z,6.38
2022-12-01T05:50:27.836Z,4.93
2022-12-01T05:51:31.015Z,4.40
2022-12-01T05:52:34.539Z,5.00
2022-12-01T05:53:39.923Z,4.32
2022-12-01T05:54:42.337Z,5.47
2022-12-01T05:55:45.927Z,5.38
2022-12-01T05:56:48.069Z,4.07
2022-12-01T05:57:51.148Z,4.38
2022-12-01T05:58:54.397Z,2.20
2022-12-01T05:59:57.077Z,2.08
2022-12-01T06:01:00.196Z,3.53
2022-12-01T06:02:02.668Z,5.22
2022-12-01T06:03:06.852Z,3.30
2022-12-01T06:04:09.031Z,3.47
2022-12-01T06:05:12.367Z,2.63
2022-12-01T06:06:15.730Z,4.82
2022-12-01T06:07:17.847Z,2.85
2022-12-01T06:08:21.144Z,4.07
2022-12-01T06:09:25.260Z,3.75
2022-12-01T06:10:28.423Z,2.78
2022-12-01T06:11:30.614Z,3.20
2022-12-01T06:12:33.837Z,2.50
2022-12-01T06:13:37.124Z,4.20
2022-12-01T06:14:39.325Z,3.80
2022-12-01T06:15:42.945Z,3.58
2022-12-01T06:16:45.144Z,3.55
2022-12-01T06:17:48.621Z,2.08
2022-12-01T06:18:50.775Z,5.13
2022-12-01T06:19:54.556Z,2.10
2022-12-01T06:20:57.087Z,4.00
2022-12-01T06:22:00.306Z,1.77
2022-12-01T06:23:03.575Z,5.75
2022-12-01T06:24:06.414Z,2.47
2022-12-01T06:25:11.895Z,4.65
2022-12-01T06:26:14.165Z,2.30
2022-12-01T06:27:17.401Z,1.95
2022-12-01T06:28:19.868Z,2.22
2022-12-01T06:29:22.989Z,2.25
2022-12-01T06:30:25.820Z,3.38
2022-12-01T06:31:29.370Z,3.13
2022-12-01T06:32:31.994Z,2.47
2022-12-01T06:33:35.394Z,2.47
2022-12-01T06:34:37.614Z,2.97
2022-12-01T06:35:40.897Z,2.50
2022-12-01T06:36:42.980Z,2.60
2022-12-01T06:37:46.308Z,2.38
2022-12-01T06:38:48.395Z,2.05
2022-12-01T06:39:51.926Z,2.50
2022-12-01T06:40:56.607Z,2.22
2022-12-01T06:41:58.950Z,2.13
2022-12-01T06:43:03.155Z,1.93
2022-12-01T06:44:06.193Z,2.17
2022-12-01T06:45:11.151Z,3.80
2022-12-01T06:46:13.394Z,3.05
2022-12-01T06:47:17.000Z,3.25
2022-12-01T06:48:19.444Z,3.58
2022-12-01T06:49:23.226Z,2.70
2022-12-01T06:50:25.676Z,3.15
2022-12-01T06:51:30.828Z,3.47
2022-12-01T06:52:32.972Z,2.67
2022-12-01T06:53:36.795Z,2.03
2022-12-01T06:54:40.265Z,2.22
2022-12-01T06:55:42.656Z,2.33
2022-12-01T06:56:47.563Z,2.33
2022-12-01T06:57:49.916Z,3.22
2022-12-01T06:58:54.205Z,4.15
2022-12-01T06:59:56.963Z,2.15
2022-12-01T07:01:00.636Z,2.47
2022-12-01T07:02:04.224Z,2.15
2022-12-01T07:03:06.675Z,2.17
2022-12-01T07:04:09.969Z,1.87
2022-12-01T07:05:12.248Z,4.15
2022-12-01T07:06:16.635Z,2.58
2022-12-01T07:07:18.891Z,2.78
2022-12-01T07:08:22.175Z,3.03
2022-12-01T07:09:24.371Z,1.92
2022-12-01T07:10:28.507Z,3.55
2022-12-01T07:11:32.363Z,3.25
2022-12-01T07:12:37.375Z,2.65
2022-12-01T07:13:40.876Z,3.28
2022-12-01T07:14:44.068Z,2.73
2022-12-01T07:15:46.594Z,2.50
2022-12-01T07:16:50.049Z,5.68
2022-12-01T07:17:53.605Z,4.05
2022-12-01T07:18:56.075Z,4.55
2022-12-01T07:19:59.316Z,4.05
2022-12-01T07:21:02.391Z,7.28
2022-12-01T07:22:05.578Z,2.63
2022-12-01T07:23:07.756Z,3.67
2022-12-01T07:24:12.666Z,3.13
2022-12-01T07:25:14.992Z,2.83
2022-12-01T07:26:19.783Z,2.22
2022-12-01T07:27:21.892Z,3.10
2022-12-01T07:28:26.637Z,3.40
2022-12-01T07:29:29.921Z,2.33
2022-12-01T07:30:32.088Z,3.85
2022-12-01T07:31:35.416Z,4.13
2022-12-01T07:32:38.596Z,3.15
2022-12-01T07:33:40.875Z,3.35
2022-12-01T07:34:43.963Z,5.18
2022-12-01T07:35:46.158Z,5.87
2022-12-01T07:36:49.294Z,2.95
2022-12-01T07:37:55.390Z,3.70
2022-12-01T07:38:58.628Z,4.55
2022-12-01T07:40:02.431Z,6.15
2022-12-01T07:41:06.013Z,6.65
2022-12-01T07:42:09.201Z,3.58
2022-12-01T07:43:11.305Z,3.17
2022-12-01T07:44:16.021Z,5.85
2022-12-01T07:45:19.245Z,2.60
2022-12-01T07:46:24.629Z,3.77
2022-12-01T07:47:28.095Z,4.10
2022-12-01T07:48:30.600Z,5.53
2022-12-01T07:49:34.384Z,3.00
2022-12-01T07:50:36.796Z,3.92
2022-12-01T07:51:39.996Z,2.35
2022-12-01T07:52:42.192Z,3.80
2022-12-01T07:53:46.073Z,2.20
2022-12-01T07:54:48.241Z,2.85
2022-12-01T07:55:51.654Z,2.47
2022-12-01T07:56:54.757Z,4.83
2022-12-01T07:57:59.791Z,3.47
2022-12-01T07:59:03.078Z,3.30
2022-12-01T08:00:09.388Z,1.77
2022-12-01T08:01:15.088Z,3.35
2022-12-01T08:02:18.560Z,3.20
2022-12-01T08:03:21.304Z,2.97
2022-12-01T08:04:24.736Z,3.65
2022-12-01T08:05:26.923Z,2.88
2022-12-01T08:06:30.113Z,4.53
2022-12-01T08:07:33.415Z,4.23
2022-12-01T08:08:37.163Z,2.47
2022-12-01T08:09:40.430Z,6.63
2022-12-01T08:10:42.513Z,9.25
2022-12-01T08:11:45.660Z,5.18
2022-12-01T08:12:49.197Z,12.02
2022-12-01T08:13:51.905Z,4.00
2022-12-01T08:14:55.392Z,6.22
2022-12-01T08:15:59.423Z,6.85
2022-12-01T08:17:02.722Z,4.80
2022-12-01T08:18:06.094Z,6.27
2022-12-01T08:19:11.732Z,13.75
2022-12-01T08:20:14.220Z,22.90
2022-12-01T08:21:19.184Z,30.33
2022-12-01T08:22:21.556Z,34.25
2022-12-01T08:23:25.744Z,21.30
2022-12-01T08:24:28.925Z,12.13
2022-12-01T08:25:31.065Z,7.90
2022-12-01T08:26:34.469Z,5.63
2022-12-01T08:27:36.795Z,5.82
2022-12-01T08:28:41.014Z,8.63
2022-12-01T08:29:44.150Z,4.28
2022-12-01T08:30:46.595Z,5.03
2022-12-01T08:31:51.615Z,4.53
2022-12-01T08:32:54.720Z,2.45
2022-12-01T08:33:58.727Z,1.98
2022-12-01T08:35:01.084Z,5.20
2022-12-01T08:36:04.581Z,3.80
2022-12-01T08:37:06.735Z,2.92
2022-12-01T08:38:11.442Z,6.68
2022-12-01T08:39:15.223Z,15.90
2022-12-01T08:40:17.426Z,14.77
2022-12-01T08:41:21.071Z,20.83
2022-12-01T08:42:23.355Z,25.35
2022-12-01T08:43:55.855Z,7.25
2022-12-01T08:44:50.215Z,13.52
2022-12-01T08:45:52.706Z,9.32
2022-12-01T08:46:57.386Z,5.63
2022-12-01T08:48:00.134Z,17.40
2022-12-01T08:49:03.871Z,10.82
2022-12-01T08:50:07.204Z,13.73
2022-12-01T08:51:12.937Z,12.40
2022-12-01T08:52:16.149Z,27.08
2022-12-01T08:53:18.342Z,28.38
2022-12-01T08:54:22.109Z,47.38
2022-12-01T08:55:24.411Z,13.35
2022-12-01T08:56:29.594Z,35.63
2022-12-01T08:57:32.138Z,16.17
2022-12-01T08:58:36.014Z,22.30
2022-12-01T08:59:39.136Z,18.98
2022-12-01T09:00:42.029Z,6.37
2022-12-01T09:01:53.385Z,19.23
2022-12-01T09:02:57.114Z,14.65
2022-12-01T09:04:08.772Z,2.95
2022-12-01T09:05:11.485Z,6.43
2022-12-01T09:06:17.092Z,4.07
2022-12-01T09:07:26.024Z,7.20
2022-12-01T09:08:31.799Z,5.80
2022-12-01T09:09:37.207Z,5.28
2022-12-01T09:10:39.558Z,4.50
2022-12-01T09:11:44.060Z,9.13
2022-12-01T09:12:47.236Z,22.92
2022-12-01T09:13:54.434Z,9.93
2022-12-01T09:14:58.268Z,34.65
2022-12-01T09:16:03.807Z,16.40
2022-12-01T09:17:07.549Z,27.52
2022-12-01T09:18:11.267Z,8.98
2022-12-01T09:19:20.600Z,17.25
2022-12-01T09:20:27.365Z,16.73
2022-12-01T09:21:32.291Z,6.95
2022-12-01T09:22:35.747Z,9.20
2022-12-01T09:23:37.908Z,18.77
2022-12-01T09:24:41.001Z,10.27
2022-12-01T09:25:43.193Z,20.63
2022-12-01T09:26:46.632Z,5.47
2022-12-01T09:27:49.802Z,21.52
2022-12-01T09:28:55.696Z,23.15
2022-12-01T09:29:59.017Z,14.93
2022-12-01T09:31:05.252Z,8.23
2022-12-01T09:32:08.407Z,7.45
2022-12-01T09:33:12.648Z,11.17
2022-12-01T09:34:17.539Z,6.32
2022-12-01T09:35:23.362Z,4.20
2022-12-01T09:36:27.997Z,3.90
2022-12-01T09:37:31.219Z,3.53
2022-12-01T09:38:35.017Z,3.30
2022-12-01T09:39:38.598Z,12.00
2022-12-01T09:40:43.733Z,9.18
2022-12-01T09:41:51.187Z,5.45
2022-12-01T09:42:54.692Z,9.65
2022-12-01T09:44:06.319Z,3.30
2022-12-01T09:45:22.592Z,3.85
2022-12-01T09:46:31.250Z,3.97
2022-12-01T09:47:37.068Z,5.82
2022-12-01T09:48:44.249Z,9.30
2022-12-01T09:49:58.684Z,4.55
2022-12-01T09:51:01.306Z,15.93
2022-12-01T09:52:04.596Z,6.88
2022-12-01T09:53:10.261Z,3.50
2022-12-01T09:54:14.813Z,3.03
2022-12-01T09:55:20.984Z,18.27
2022-12-01T09:56:25.992Z,8.82
2022-12-01T09:57:33.816Z,5.53
2022-12-01T09:58:37.826Z,5.10
2022-12-01T09:59:43.584Z,8.13
2022-12-01T10:00:49.307Z,10.77
2022-12-01T10:01:55.237Z,4.60
2022-12-01T10:03:05.992Z,7.75
2022-12-01T10:04:16.011Z,4.35
2022-12-01T10:05:22.248Z,3.90
2022-12-01T10:06:33.515Z,3.40
2022-12-01T10:07:41.139Z,9.23
2022-12-01T10:08:51.075Z,4.78
2022-12-01T10:09:57.355Z,11.75
2022-12-01T10:11:05.986Z,2.22
2022-12-01T10:12:19.895Z,1.63
2022-12-01T10:13:26.261Z,2.85
2022-12-01T10:14:34.508Z,1.15
2022-12-01T10:15:44.343Z,4.95
2022-12-01T10:16:55.104Z,9.15
2022-12-01T10:18:18.778Z,3.67
2022-12-01T10:19:33.056Z,3.42
2022-12-01T10:20:46.688Z,11.43
2022-12-01T10:22:08.488Z,6.75
2022-12-01T10:23:31.961Z,5.50
2022-12-01T10:24:47.882Z,8.25
2022-12-01T10:25:58.081Z,3.47
2022-12-01T10:27:13.737Z,1.85
2022-12-01T10:28:37.120Z,2.17
2022-12-01T10:29:48.304Z,1.70
2022-12-01T10:30:53.782Z,2.50
2022-12-01T10:31:58.324Z,3.25
2022-12-01T10:33:06.103Z,1.65
2022-12-01T10:34:17.139Z,2.28
2022-12-01T10:35:23.803Z,1.52
2022-12-01T10:36:27.145Z,3.20
2022-12-01T10:37:32.156Z,2.72
2022-12-01T10:38:36.809Z,1.85
2022-12-01T10:39:43.248Z,6.95
2022-12-01T10:40:46.379Z,10.88
2022-12-01T10:41:50.974Z,20.50
2022-12-01T10:42:54.352Z,9.05
2022-12-01T10:44:00.948Z,10.77
2022-12-01T10:45:08.827Z,3.25
2022-12-01T10:46:23.743Z,5.47
2022-12-01T10:47:28.267Z,7.05
2022-12-01T10:48:30.796Z,10.75
2022-12-01T10:49:38.711Z,4.78
2022-12-01T10:50:43.609Z,9.73
2022-12-01T10:51:53.136Z,4.60
2022-12-01T10:52:56.388Z,25.30
2022-12-01T10:54:01.115Z,17.88
2022-12-01T10:55:07.697Z,20.15
2022-12-01T10:56:15.195Z,4.63
2022-12-01T10:57:18.723Z,7.82
2022-12-01T10:58:20.973Z,5.03
2022-12-01T10:59:29.784Z,5.28
2022-12-01T11:00:59.731Z,4.50
2022-12-01T11:02:02.273Z,2.20
2022-12-01T11:03:06.606Z,3.92
2022-12-01T11:04:29.259Z,2.57
2022-12-01T11:05:38.967Z,7.93
2022-12-01T11:06:49.770Z,3.20
2022-12-01T11:07:52.862Z,2.78
2022-12-01T11:09:00.448Z,5.47
2022-12-01T11:10:17.341Z,1.90
2022-12-01T11:11:30.354Z,4.95
2022-12-01T11:12:35.374Z,2.40
2022-12-01T11:13:38.730Z,5.38
2022-12-01T11:14:46.070Z,2.50
2022-12-01T11:15:53.204Z,4.10
2022-12-01T11:16:56.606Z,6.22
2022-12-01T11:18:01.770Z,2.95
2022-12-01T11:19:27.583Z,3.28
2022-12-01T11:20:35.483Z,2.92
2022-12-01T11:21:47.998Z,2.95
2022-12-01T11:22:51.208Z,2.83
2022-12-01T11:23:55.895Z,3.33
2022-12-01T11:25:01.794Z,3.13
2022-12-01T11:26:14.147Z,2.75
2022-12-01T11:27:20.764Z,3.33
2022-12-01T11:28:24.220Z,2.78
2022-12-01T11:29:35.572Z,4.40
2022-12-01T11:30:38.967Z,2.95
2022-12-01T11:31:45.174Z,3.70
2022-12-01T11:32:54.607Z,3.75
2022-12-01T11:33:57.032Z,3.28
2022-12-01T11:35:03.903Z,2.78
2022-12-01T11:36:14.619Z,2.38
2022-12-01T11:37:23.032Z,2.20
2022-12-01T11:38:34.609Z,3.33
2022-12-01T11:39:40.713Z,2.60
2022-12-01T11:40:48.130Z,3.15
2022-12-01T11:41:57.084Z,2.47
2022-12-01T11:43:02.361Z,2.63
2022-12-01T11:44:22.449Z,4.13
2022-12-01T11:45:33.881Z,2.65
2022-12-01T11:46:50.091Z,2.28
2022-12-01T11:48:05.736Z,4.90
2022-12-01T11:49:18.533Z,4.40
2022-12-01T11:50:26.137Z,4.30
2022-12-01T11:51:32.032Z,5.38
2022-12-01T11:52:47.370Z,3.45
2022-12-01T11:53:51.163Z,4.95
2022-12-01T11:55:09.537Z,3.92
2022-12-01T11:56:23.404Z,5.07
2022-12-01T11:57:35.257Z,4.22
2022-12-01T11:58:38.993Z,4.55
2022-12-01T11:59:41.241Z,4.30
2022-12-01T12:00:49.142Z,2.83
2022-12-01T12:02:08.031Z,3.57
2022-12-01T12:03:22.344Z,3.40
2022-12-01T12:04:38.572Z,3.28
2022-12-01T12:05:57.619Z,3.72
2022-12-01T12:07:17.675Z,3.42
2022-12-01T12:08:36.971Z,4.05
2022-12-01T12:09:55.341Z,3.95
2022-12-01T12:11:08.810Z,3.13
2022-12-01T12:12:26.959Z,3.58
2022-12-01T12:13:46.497Z,4.18
2022-12-01T12:15:01.047Z,2.90
2022-12-01T12:16:16.099Z,5.10
2022-12-01T12:17:48.901Z,3.63
2022-12-01T12:19:06.111Z,2.88
2022-12-01T12:20:38.704Z,3.17
2022-12-01T12:21:49.972Z,4.93
2022-12-01T12:23:08.450Z,3.63
2022-12-01T12:24:37.332Z,3.30
2022-12-01T12:25:55.493Z,2.05
2022-12-01T12:27:07.386Z,2.63
2022-12-01T12:28:28.547Z,2.50
2022-12-01T12:29:48.554Z,2.63
2022-12-01T12:30:59.056Z,4.63
2022-12-01T12:32:19.510Z,2.58
2022-12-01T12:33:51.173Z,2.95
2022-12-01T12:35:04.558Z,3.10
2022-12-01T12:36:17.588Z,2.70
2022-12-01T12:37:27.898Z,2.85
2022-12-01T12:38:45.724Z,2.80
2022-12-01T12:40:39.422Z,2.50
2022-12-01T12:41:47.242Z,3.37
2022-12-01T12:43:03.935Z,3.70
2022-12-01T12:44:30.018Z,3.30
2022-12-01T12:45:50.795Z,5.10
2022-12-01T12:47:05.150Z,3.60
2022-12-01T12:48:21.198Z,3.13
2022-12-01T12:49:34.120Z,2.60
2022-12-01T12:50:44.955Z,3.17
2022-12-01T12:51:53.002Z,3.40
2022-12-01T12:52:59.651Z,3.17
2022-12-01T12:54:16.625Z,2.70
2022-12-01T12:55:27.932Z,2.75
2022-12-01T12:56:33.753Z,3.17
2022-12-01T12:57:41.065Z,3.60
2022-12-01T12:58:56.527Z,4.38
2022-12-01T13:00:03.563Z,2.97
2022-12-01T13:01:17.141Z,3.28
2022-12-01T13:02:27.158Z,2.95
2022-12-01T13:03:39.909Z,3.53
2022-12-01T13:04:52.935Z,2.88
2022-12-01T13:06:02.790Z,2.63
2022-12-01T13:07:10.347Z,2.35
2022-12-01T13:08:19.155Z,6.65
2022-12-01T13:09:29.157Z,2.30
2022-12-01T13:10:42.156Z,3.92
2022-12-01T13:11:50.919Z,3.28
2022-12-01T13:12:58.265Z,3.83
2022-12-01T13:14:07.315Z,2.75
2022-12-01T13:15:17.183Z,4.07
2022-12-01T13:16:29.356Z,3.22
2022-12-01T13:17:37.842Z,3.97
2022-12-01T13:18:45.568Z,3.35
2022-12-01T13:19:48.272Z,3.90
2022-12-01T13:20:53.693Z,2.90
2022-12-01T13:21:57.997Z,5.38
2022-12-01T13:23:03.904Z,3.20
2022-12-01T13:24:09.292Z,6.22
2022-12-01T13:25:14.832Z,3.55
2022-12-01T13:26:20.569Z,6.05
2022-12-01T13:27:27.042Z,3.08
2022-12-01T13:28:36.571Z,4.00
2022-12-01T13:29:45.769Z,3.75
2022-12-01T13:31:07.522Z,3.63
2022-12-01T13:32:29.040Z,3.42
2022-12-01T13:33:33.624Z,2.80
2022-12-01T13:34:40.516Z,3.22
2022-12-01T13:35:43.724Z,2.58
2022-12-01T13:36:50.225Z,3.38
2022-12-01T13:37:54.876Z,2.88
2022-12-01T13:38:59.813Z,3.03
2022-12-01T13:40:13.576Z,4.73
2022-12-01T13:41:27.728Z,3.00
2022-12-01T13:42:34.345Z,3.10
2022-12-01T13:43:38.075Z,2.20
2022-12-01T13:44:44.117Z,3.10
2022-12-01T13:45:48.420Z,2.53
2022-12-01T13:46:54.384Z,4.07
2022-12-01T13:48:01.814Z,3.38
2022-12-01T13:49:06.174Z,3.65
2022-12-01T13:50:55.880Z,4.45
2022-12-01T13:52:29.282Z,3.07
2022-12-01T13:53:36.758Z,2.90
2022-12-01T13:54:39.901Z,3.22
2022-12-01T13:56:01.361Z,2.20
2022-12-01T13:57:12.128Z,3.40
2022-12-01T13:58:41.257Z,2.67
2022-12-01T14:00:04.252Z,3.72
2022-12-01T14:01:40.897Z,4.40
2022-12-01T14:02:44.712Z,3.88
2022-12-01T14:03:53.527Z,2.78
2022-12-01T14:04:56.872Z,3.77
2022-12-01T14:06:09.224Z,2.45
2022-12-01T14:07:34.785Z,3.55
2022-12-01T14:08:46.176Z,2.45
2022-12-01T14:09:52.421Z,5.28
2022-12-01T14:10:59.357Z,3.28
2022-12-01T14:12:04.032Z,3.53
2022-12-01T14:13:09.206Z,3.45
2022-12-01T14:14:21.218Z,4.25
2022-12-01T14:15:43.916Z,2.85
2022-12-01T14:16:48.895Z,3.30
2022-12-01T14:18:01.899Z,3.10
2022-12-01T14:19:05.150Z,3.65
2022-12-01T14:20:20.452Z,3.90
2022-12-01T14:21:44.839Z,2.85
2022-12-01T14:23:03.231Z,3.33
2022-12-01T14:24:08.058Z,3.65
2022-12-01T14:25:27.566Z,2.25
2022-12-01T14:26:32.534Z,4.20
2022-12-01T14:27:38.289Z,2.95
2022-12-01T14:29:24.370Z,5.03
2022-12-01T14:31:07.672Z,4.97
2022-12-01T14:32:25.830Z,3.10
2022-12-01T14:33:53.320Z,4.70
2022-12-01T14:35:02.279Z,2.67
2022-12-01T14:36:07.933Z,4.38
2022-12-01T14:37:14.767Z,3.75
2022-12-01T14:38:18.047Z,4.80
2022-12-01T14:39:23.535Z,3.38
2022-12-01T14:40:31.529Z,4.40
2022-12-01T14:41:43.296Z,3.83
2022-12-01T14:43:08.108Z,2.85
2022-12-01T14:44:27.919Z,3.55
2022-12-01T14:45:34.851Z,2.65
2022-12-01T14:46:44.640Z,2.67
2022-12-01T14:47:52.753Z,4.47
2022-12-01T14:48:56.712Z,2.28
2022-12-01T14:50:01.987Z,3.83
2022-12-01T14:51:23.741Z,4.03
2022-12-01T14:52:33.986Z,3.33